Time;durP1;ratioP1;P1;durP2;ratioP2;P2;SDS_P1;SDS_P2;PMS_P1;PMS_P2;Temp;Humidity;BMP_temperature;BMP_pressure;BME280_temperature;BME280_humidity;BME280_pressure;Samples;Min_cycle;Max_cycle;Signal;HPM_P1;HPM_P2
2023/01/17 00:02:04;;;;;;;;;;;;;;;8.98;61.84;96844.94;4476316;32;35362;-82
2023/01/17 00:10:09;;;;;;;;;;;;;;;9.33;60.63;96820.97;4483879;32;34926;-80
2023/01/17 00:12:36;;;;;;;;;;;;;;;8.78;62.42;96830.59;4466565;32;35091;-82
2023/01/17 00:15:04;;;;;;;;;;;;;;;9.77;59.42;96815.75;4484292;32;34353;-82
2023/01/17 00:17:31;;;;;;;;;;;;;;;9.33;60.49;96826.16;4462458;32;33221;-82
2023/01/17 00:26:04;;;;;;;;;;;;;;;8.45;63.84;96826.03;4449490;32;33519;-82
2023/01/17 01:35:53;;;;;;;;;;;;;;;9.21;61.33;96847.09;4476998;32;34883;-85
2023/01/17 01:38:23;;;;;;;;;;;;;;;8.27;63.43;96852.97;4463338;32;35803;-89
2023/01/17 01:40:52;;;;;;;;;;;;;;;8.34;63.42;96851.16;4474156;32;34969;-82
2023/01/17 01:43:39;;;;;;;;;;;;;;;8.23;64.93;96848.72;4484225;32;33277;-91
2023/01/17 01:46:07;;;;;;;;;;;;;;;8.25;65.00;96842.62;4473342;32;33932;-82
2023/01/17 01:48:34;;;;;;;;;;;;;;;8.47;63.70;96835.44;4467780;32;34362;-88
2023/01/17 01:51:03;;;;;;;;;;;;;;;9.25;61.80;96822.87;4480454;32;34465;-82
2023/01/17 01:53:31;;;;;;;;;;;;;;;9.88;59.95;96808.59;4454569;32;32321;-82
2023/01/17 01:55:58;;;;;;;;;;;;;;;9.81;59.50;96801.84;4468363;32;34936;-82
2023/01/17 01:58:26;;;;;;;;;;;;;;;8.63;62.61;96801.63;4469144;32;33622;-88
2023/01/17 02:00:54;;;;;;;;;;;;;;;9.05;61.46;96802.56;4463694;32;34978;-81
2023/01/17 02:03:23;;;;;;;;;;;;;;;9.65;60.53;96788.41;4467981;32;33454;-82
2023/01/17 02:05:50;;;;;;;;;;;;;;;9.85;59.17;96787.97;4476889;32;35259;-82
2023/01/17 02:08:18;;;;;;;;;;;;;;;9.60;60.44;96783.34;4483675;32;34146;-82
2023/01/17 02:10:46;;;;;;;;;;;;;;;10.13;58.63;96793.38;4477107;32;34330;-81
2023/01/17 02:13:15;;;;;;;;;;;;;;;9.09;61.90;96801.66;4465443;32;33390;-81
2023/01/17 02:15:48;;;;;;;;;;;;;;;9.05;61.93;96797.38;4467803;32;34268;-82
2023/01/17 02:18:20;;;;;;;;;;;;;;;8.56;63.87;96806.06;4478280;32;35357;-82
2023/01/17 02:21:11;;;;;;;;;;;;;;;9.49;60.70;96795.66;4465515;32;33705;-94
2023/01/17 02:23:47;;;;;;;;;;;;;;;9.82;59.94;96790.66;4483541;32;33826;-89
2023/01/17 02:26:34;;;;;;;;;;;;;;;9.36;61.32;96804.56;4482352;32;33684;-89
2023/01/17 02:29:17;;;;;;;;;;;;;;;8.11;65.12;96799.87;4482362;32;34197;-82
2023/01/17 02:31:46;;;;;;;;;;;;;;;8.96;63.14;96800.16;4481229;32;34709;-81
2023/01/17 02:34:16;;;;;;;;;;;;;;;8.75;63.85;96791.94;4469083;32;34235;-82
2023/01/17 02:37:03;;;;;;;;;;;;;;;9.19;62.47;96797.13;4467376;32;34143;-82
2023/01/17 02:39:39;;;;;;;;;;;;;;;9.36;61.59;96786.47;4469191;32;35254;-81
2023/01/17 02:42:07;;;;;;;;;;;;;;;9.16;62.17;96785.09;4465364;32;35084;-85
2023/01/17 02:44:38;;;;;;;;;;;;;;;8.47;64.59;96780.38;4480950;32;34378;-82
2023/01/17 02:47:21;;;;;;;;;;;;;;;8.83;63.20;96765.97;4481399;32;34177;-86
2023/01/17 02:49:49;;;;;;;;;;;;;;;8.85;63.38;96760.75;4481493;32;34053;-84
2023/01/17 02:52:16;;;;;;;;;;;;;;;9.06;63.12;96742.25;4462920;32;33708;-81
2023/01/17 02:55:02;;;;;;;;;;;;;;;9.00;62.75;96743.22;4483182;32;33492;-93
2023/01/17 02:57:43;;;;;;;;;;;;;;;9.70;60.82;96734.84;4482508;32;33917;-81
2023/01/17 03:00:21;;;;;;;;;;;;;;;10.05;59.32;96726.25;4468179;32;34356;-82
2023/01/17 03:02:53;;;;;;;;;;;;;;;9.86;59.33;96727.59;4453741;32;34583;-93
2023/01/17 03:05:23;;;;;;;;;;;;;;;9.82;60.43;96723.37;4474283;32;34235;-82
2023/01/17 03:07:50;;;;;;;;;;;;;;;10.64;57.25;96716.13;4467001;32;34301;-82
2023/01/17 03:10:17;;;;;;;;;;;;;;;9.18;61.78;96712.72;4467720;32;34351;-86
2023/01/17 03:12:45;;;;;;;;;;;;;;;9.24;62.05;96718.63;4466822;32;35022;-93
2023/01/17 03:15:13;;;;;;;;;;;;;;;10.34;58.74;96707.44;4482794;32;34154;-86
2023/01/17 03:17:41;;;;;;;;;;;;;;;9.37;61.58;96710.59;4463698;32;34779;-84
2023/01/17 03:20:09;;;;;;;;;;;;;;;9.97;59.18;96704.88;4467951;32;34099;-91
2023/01/17 03:22:36;;;;;;;;;;;;;;;8.77;63.54;96707.50;4480820;32;35028;-82
2023/01/17 03:25:04;;;;;;;;;;;;;;;9.84;60.22;96700.87;4481137;32;33467;-82
2023/01/17 03:27:31;;;;;;;;;;;;;;;9.02;61.93;96704.44;4482680;32;34131;-82
2023/01/17 03:29:59;;;;;;;;;;;;;;;9.42;60.60;96690.63;4482711;32;34539;-93
2023/01/17 03:32:26;;;;;;;;;;;;;;;10.24;58.94;96682.62;4479674;32;35182;-82
2023/01/17 03:34:53;;;;;;;;;;;;;;;9.64;60.13;96681.50;4482443;32;33377;-82
2023/01/17 03:37:20;;;;;;;;;;;;;;;10.52;58.30;96682.78;4482237;32;34205;-81
2023/01/17 03:39:48;;;;;;;;;;;;;;;10.93;56.66;96673.00;4482419;32;35291;-93
2023/01/17 03:42:15;;;;;;;;;;;;;;;10.17;59.05;96675.91;4477181;32;34108;-80
2023/01/17 03:44:45;;;;;;;;;;;;;;;9.82;60.03;96666.44;4479848;32;33666;-88
2023/01/17 03:47:12;;;;;;;;;;;;;;;10.11;58.97;96671.72;4482569;32;34260;-94
2023/01/17 03:49:39;;;;;;;;;;;;;;;10.63;57.77;96664.34;4482546;32;35113;-82
2023/01/17 03:52:07;;;;;;;;;;;;;;;11.04;56.45;96668.38;4482165;32;34167;-80
2023/01/17 03:54:34;;;;;;;;;;;;;;;11.11;55.93;96659.53;4481831;32;33500;-85
2023/01/17 03:57:01;;;;;;;;;;;;;;;11.58;55.19;96661.56;4481811;32;34299;-82
2023/01/17 03:59:28;;;;;;;;;;;;;;;11.41;54.67;96665.53;4480963;32;34403;-82
2023/01/17 04:01:56;;;;;;;;;;;;;;;11.54;54.79;96665.16;4465896;32;34223;-82
2023/01/17 04:04:23;;;;;;;;;;;;;;;11.48;54.99;96663.59;4482465;32;32815;-82
2023/01/17 04:06:50;;;;;;;;;;;;;;;11.86;53.98;96661.56;4479624;32;34126;-92
2023/01/17 04:09:18;;;;;;;;;;;;;;;11.56;54.73;96655.59;4479232;32;33931;-83
2023/01/17 04:11:49;;;;;;;;;;;;;;;10.71;56.69;96657.22;4480112;32;34679;-92
2023/01/17 04:14:17;;;;;;;;;;;;;;;11.63;54.26;96657.06;4481735;32;33128;-82
2023/01/17 04:16:44;;;;;;;;;;;;;;;11.15;55.50;96653.34;4479973;32;34186;-82
2023/01/17 04:19:11;;;;;;;;;;;;;;;11.40;55.19;96652.59;4467682;32;33994;-82
2023/01/17 04:21:38;;;;;;;;;;;;;;;11.56;54.73;96663.37;4456795;32;34109;-82
2023/01/17 04:24:06;;;;;;;;;;;;;;;11.50;54.51;96669.59;4479845;32;33525;-85
2023/01/17 04:26:33;;;;;;;;;;;;;;;11.34;55.12;96656.25;4482953;32;34986;-81
2023/01/17 04:29:00;;;;;;;;;;;;;;;10.78;56.92;96665.69;4484254;32;34396;-82
2023/01/17 04:31:27;;;;;;;;;;;;;;;11.47;54.80;96664.47;4483069;32;34213;-88
2023/01/17 04:33:55;;;;;;;;;;;;;;;10.19;58.15;96672.41;4480601;32;33138;-82
2023/01/17 04:36:22;;;;;;;;;;;;;;;10.88;56.01;96664.53;4484386;32;33991;-82
2023/01/17 04:38:49;;;;;;;;;;;;;;;10.99;56.55;96666.81;4484097;32;34979;-93
2023/01/17 04:41:17;;;;;;;;;;;;;;;11.33;55.27;96666.66;4480122;32;34972;-81
2023/01/17 04:43:44;;;;;;;;;;;;;;;11.48;54.77;96667.91;4483669;32;33593;-81
2023/01/17 04:46:11;;;;;;;;;;;;;;;11.49;54.57;96661.84;4483971;32;35121;-81
2023/01/17 04:48:39;;;;;;;;;;;;;;;11.39;54.79;96663.88;4483985;32;35365;-91
2023/01/17 04:51:06;;;;;;;;;;;;;;;11.91;53.28;96663.13;4480942;32;34059;-81
2023/01/17 04:53:33;;;;;;;;;;;;;;;11.13;55.70;96665.50;4483987;32;34249;-82
2023/01/17 04:56:01;;;;;;;;;;;;;;;11.33;55.31;96671.84;4469707;32;33966;-95
2023/01/17 04:58:28;;;;;;;;;;;;;;;11.82;54.08;96672.91;4483911;32;35195;-91
2023/01/17 05:00:59;;;;;;;;;;;;;;;11.52;54.59;96667.81;4465820;32;34309;-82
2023/01/17 05:03:28;;;;;;;;;;;;;;;11.02;55.93;96667.56;4484068;32;33250;-84
2023/01/17 05:05:55;;;;;;;;;;;;;;;11.24;54.99;96661.75;4483632;32;34701;-82
2023/01/17 05:08:22;;;;;;;;;;;;;;;11.59;54.15;96669.31;4484280;32;34354;-82
2023/01/17 05:10:50;;;;;;;;;;;;;;;11.20;55.48;96660.97;4453249;32;34471;-95
2023/01/17 05:13:17;;;;;;;;;;;;;;;10.71;56.83;96670.16;4484270;32;33250;-81
2023/01/17 05:15:44;;;;;;;;;;;;;;;11.20;55.77;96669.59;4483442;32;34971;-82
2023/01/17 05:18:13;;;;;;;;;;;;;;;11.22;55.76;96664.41;4474546;32;32837;-81
2023/01/17 05:20:41;;;;;;;;;;;;;;;11.04;56.18;96668.38;4482749;32;35047;-91
2023/01/17 05:23:08;;;;;;;;;;;;;;;11.19;56.09;96662.72;4484362;32;33243;-93
2023/01/17 05:25:35;;;;;;;;;;;;;;;11.02;56.19;96677.06;4483272;32;33854;-86
2023/01/17 05:28:03;;;;;;;;;;;;;;;11.00;56.26;96676.28;4485838;32;33982;-93
2023/01/17 05:30:31;;;;;;;;;;;;;;;11.47;55.20;96674.84;4470469;32;35137;-87
2023/01/17 05:32:58;;;;;;;;;;;;;;;11.65;54.33;96674.28;4470396;32;33300;-84
2023/01/17 05:35:27;;;;;;;;;;;;;;;10.85;55.91;96678.41;4488823;32;33646;-81
2023/01/17 05:37:54;;;;;;;;;;;;;;;11.05;56.00;96688.22;4484754;32;34498;-93
2023/01/17 05:40:23;;;;;;;;;;;;;;;11.78;53.84;96686.88;4469883;32;34835;-90
2023/01/17 05:42:51;;;;;;;;;;;;;;;11.54;54.32;96688.50;4484210;32;33155;-93
2023/01/17 05:45:19;;;;;;;;;;;;;;;11.77;53.57;96688.62;4469711;32;35058;-92
2023/01/17 05:47:47;;;;;;;;;;;;;;;11.26;54.82;96699.72;4469267;31;34440;-92
2023/01/17 05:50:16;;;;;;;;;;;;;;;11.36;54.99;96703.72;4484121;32;34871;-89
2023/01/17 05:52:53;;;;;;;;;;;;;;;11.60;54.17;96709.94;4483937;32;33616;-91
2023/01/17 05:55:21;;;;;;;;;;;;;;;11.07;55.39;96714.97;4454585;32;35096;-94
2023/01/17 05:57:49;;;;;;;;;;;;;;;10.79;56.44;96721.78;4481172;32;34077;-93
2023/01/17 06:00:16;;;;;;;;;;;;;;;10.46;57.34;96727.84;4484583;32;35092;-82
2023/01/17 06:02:44;;;;;;;;;;;;;;;10.76;56.68;96740.00;4483661;31;33370;-83
2023/01/17 06:05:11;;;;;;;;;;;;;;;10.79;56.24;96737.34;4483216;32;34390;-83
2023/01/17 06:07:38;;;;;;;;;;;;;;;10.90;55.90;96735.31;4483177;32;34246;-82
2023/01/17 06:10:06;;;;;;;;;;;;;;;11.00;55.71;96736.75;4483219;32;34772;-89
2023/01/17 06:12:33;;;;;;;;;;;;;;;10.99;55.68;96744.59;4482296;32;33271;-89
2023/01/17 06:15:00;;;;;;;;;;;;;;;11.04;55.82;96743.56;4483630;32;34351;-91
2023/01/17 06:17:28;;;;;;;;;;;;;;;10.43;57.70;96746.03;4469768;32;34130;-90
2023/01/17 06:19:55;;;;;;;;;;;;;;;10.42;57.71;96740.91;4467562;32;35118;-90
2023/01/17 06:22:22;;;;;;;;;;;;;;;10.14;58.69;96751.91;4467882;32;33327;-91
2023/01/17 06:24:49;;;;;;;;;;;;;;;9.65;60.20;96750.47;4469620;32;34254;-81
2023/01/17 06:27:16;;;;;;;;;;;;;;;10.45;58.08;96754.63;4468211;32;35032;-88
2023/01/17 06:29:44;;;;;;;;;;;;;;;10.66;57.46;96752.38;4482148;32;34306;-90
2023/01/17 06:32:12;;;;;;;;;;;;;;;9.87;59.38;96760.34;4483723;32;34074;-93
2023/01/17 06:34:40;;;;;;;;;;;;;;;9.97;59.27;96765.25;4482740;32;34291;-82
2023/01/17 06:37:07;;;;;;;;;;;;;;;10.20;58.64;96775.06;4482900;32;34533;-82
2023/01/17 06:39:34;;;;;;;;;;;;;;;10.56;57.43;96782.84;4483088;32;34962;-88
2023/01/17 06:42:02;;;;;;;;;;;;;;;10.12;58.64;96782.19;4469219;32;33479;-82
2023/01/17 06:44:29;;;;;;;;;;;;;;;10.23;58.48;96793.13;4469242;32;34091;-93
2023/01/17 06:46:56;;;;;;;;;;;;;;;10.46;57.63;96789.16;4481834;32;34386;-88
2023/01/17 06:49:24;;;;;;;;;;;;;;;10.27;57.84;96804.31;4483034;32;33928;-82
2023/01/17 06:51:51;;;;;;;;;;;;;;;10.16;58.65;96806.25;4483534;32;33727;-82
2023/01/17 06:54:18;;;;;;;;;;;;;;;10.63;57.14;96812.88;4483182;32;33850;-83
2023/01/17 06:56:46;;;;;;;;;;;;;;;10.43;57.38;96810.81;4483158;32;34602;-82
2023/01/17 06:59:13;;;;;;;;;;;;;;;10.52;57.05;96816.63;4483227;32;34771;-96
2023/01/17 07:01:40;;;;;;;;;;;;;;;10.53;56.98;96823.50;4482939;32;34228;-82
2023/01/17 07:04:08;;;;;;;;;;;;;;;10.57;56.49;96823.44;4483241;32;34038;-91
2023/01/17 07:06:35;;;;;;;;;;;;;;;10.68;55.98;96826.59;4483275;32;34498;-82
2023/01/17 07:09:03;;;;;;;;;;;;;;;10.84;55.34;96833.97;4483019;32;33941;-82
2023/01/17 07:11:30;;;;;;;;;;;;;;;10.30;56.66;96831.84;4483197;32;34234;-82
2023/01/17 07:13:57;;;;;;;;;;;;;;;10.35;56.53;96832.59;4482986;32;35117;-82
2023/01/17 07:16:25;;;;;;;;;;;;;;;10.46;55.85;96838.37;4482658;32;34091;-82
2023/01/17 07:18:53;;;;;;;;;;;;;;;10.14;56.62;96845.09;4483199;32;35055;-90
2023/01/17 07:21:21;;;;;;;;;;;;;;;10.60;55.41;96846.66;4482730;32;34203;-82
2023/01/17 07:23:48;;;;;;;;;;;;;;;10.94;54.65;96853.56;4482948;32;34083;-82
2023/01/17 07:26:16;;;;;;;;;;;;;;;10.83;54.54;96859.03;4482971;32;34154;-82
2023/01/17 07:28:43;;;;;;;;;;;;;;;10.77;54.69;96869.56;4482917;32;34943;-89
2023/01/17 07:31:10;;;;;;;;;;;;;;;10.46;55.01;96866.88;4482718;32;33034;-82
2023/01/17 07:33:38;;;;;;;;;;;;;;;10.43;55.31;96872.97;4482649;32;34354;-82
2023/01/17 07:36:06;;;;;;;;;;;;;;;10.65;54.06;96875.91;4482650;32;35441;-81
2023/01/17 07:38:34;;;;;;;;;;;;;;;10.60;54.65;96887.25;4482696;32;34002;-90
2023/01/17 07:41:01;;;;;;;;;;;;;;;10.40;55.13;96893.75;4483038;32;33733;-95
2023/01/17 07:43:28;;;;;;;;;;;;;;;11.15;53.04;96897.09;4482818;32;34029;-81
2023/01/17 07:45:56;;;;;;;;;;;;;;;10.69;54.28;96908.63;4482542;32;33911;-82
2023/01/17 07:48:23;;;;;;;;;;;;;;;8.99;58.14;96929.31;4468565;32;33716;-82
2023/01/17 07:50:54;;;;;;;;;;;;;;;9.68;56.27;96931.50;4468411;32;33186;-84
2023/01/17 07:53:22;;;;;;;;;;;;;;;10.64;53.83;96923.41;4468403;32;34201;-82
2023/01/17 07:55:50;;;;;;;;;;;;;;;10.37;53.82;96922.31;4470893;32;35301;-88
2023/01/17 07:58:18;;;;;;;;;;;;;;;10.42;54.09;96932.59;4483317;32;34227;-83
2023/01/17 08:00:45;;;;;;;;;;;;;;;10.07;54.90;96941.91;4484519;32;33281;-95
2023/01/17 08:03:14;;;;;;;;;;;;;;;10.67;53.13;96927.69;4484553;32;35060;-87
2023/01/17 08:05:41;;;;;;;;;;;;;;;10.88;52.53;96934.09;4484493;32;34463;-83
2023/01/17 08:08:09;;;;;;;;;;;;;;;10.44;53.81;96933.41;4484829;32;34069;-82
2023/01/17 08:10:36;;;;;;;;;;;;;;;10.92;52.88;96938.31;4484469;32;33098;-82
2023/01/17 08:13:03;;;;;;;;;;;;;;;10.79;52.85;96932.56;4484573;32;35002;-82
2023/01/17 08:15:31;;;;;;;;;;;;;;;11.22;51.87;96941.06;4483353;32;35214;-82
2023/01/17 08:17:59;;;;;;;;;;;;;;;9.50;55.70;96962.88;4484267;32;35117;-82
2023/01/17 08:20:26;;;;;;;;;;;;;;;11.05;52.41;96957.00;4484282;32;34117;-82
2023/01/17 08:22:55;;;;;;;;;;;;;;;10.01;54.76;96962.78;4470277;32;33756;-81
2023/01/17 08:25:23;;;;;;;;;;;;;;;9.50;55.88;96962.88;4484156;32;34259;-82
2023/01/17 08:27:50;;;;;;;;;;;;;;;10.64;52.66;96957.09;4484313;32;34250;-82
2023/01/17 08:30:17;;;;;;;;;;;;;;;10.77;52.02;96967.19;4483575;32;34371;-81
2023/01/17 08:32:45;;;;;;;;;;;;;;;8.54;57.13;96983.41;4484362;32;34379;-91
2023/01/17 08:35:12;;;;;;;;;;;;;;;9.90;53.03;96988.00;4477722;32;33917;-92
2023/01/17 08:37:40;;;;;;;;;;;;;;;11.08;50.57;96978.53;4469007;32;34345;-92
2023/01/17 08:40:09;;;;;;;;;;;;;;;11.14;50.53;96977.56;4468963;32;33458;-91
2023/01/17 08:42:38;;;;;;;;;;;;;;;11.14;50.24;96975.81;4468707;32;34280;-81
2023/01/17 08:45:06;;;;;;;;;;;;;;;11.36;50.07;96983.88;4472643;32;34145;-81
2023/01/17 08:47:33;;;;;;;;;;;;;;;10.42;51.95;96995.59;4484664;32;33782;-81
2023/01/17 08:50:01;;;;;;;;;;;;;;;10.60;50.95;96991.75;4470144;32;34143;-82
2023/01/17 08:52:28;;;;;;;;;;;;;;;11.59;48.67;96982.44;4484605;32;33909;-81
2023/01/17 08:54:55;;;;;;;;;;;;;;;11.66;48.58;96987.44;4484070;32;34306;-83
2023/01/17 08:57:22;;;;;;;;;;;;;;;11.14;49.64;96980.16;4484225;32;34080;-81
2023/01/17 08:59:50;;;;;;;;;;;;;;;11.57;48.14;96973.84;4484390;32;33224;-81
2023/01/17 09:02:18;;;;;;;;;;;;;;;11.51;47.84;96971.41;4484262;32;33981;-81
2023/01/17 09:04:45;;;;;;;;;;;;;;;11.56;48.04;96973.00;4484247;32;34075;-80
2023/01/17 09:07:13;;;;;;;;;;;;;;;11.64;47.64;96973.66;4484073;32;33756;-81
2023/01/17 09:09:40;;;;;;;;;;;;;;;12.39;45.69;96978.53;4469327;32;33319;-82
2023/01/17 09:12:08;;;;;;;;;;;;;;;12.51;45.95;96993.75;4484225;32;35093;-81
2023/01/17 09:14:36;;;;;;;;;;;;;;;11.04;48.99;96992.47;4484243;32;35257;-94
2023/01/17 09:17:05;;;;;;;;;;;;;;;11.34;48.55;97003.84;4484057;32;34420;-81
2023/01/17 09:19:34;;;;;;;;;;;;;;;11.67;48.26;97001.28;4484583;32;33688;-81
2023/01/17 09:22:03;;;;;;;;;;;;;;;10.22;51.40;97010.66;4484203;32;34268;-81
2023/01/17 09:24:31;;;;;;;;;;;;;;;10.93;49.35;96999.66;4483910;32;35306;-81
2023/01/17 09:26:59;;;;;;;;;;;;;;;10.97;49.13;96998.69;4483673;32;34038;-81
2023/01/17 09:29:26;;;;;;;;;;;;;;;11.39;48.55;97006.31;4469791;32;33484;-81
2023/01/17 09:31:53;;;;;;;;;;;;;;;11.30;48.99;97001.38;4483996;32;34020;-81
2023/01/17 09:34:23;;;;;;;;;;;;;;;11.08;50.21;97025.22;4484077;32;34119;-81
2023/01/17 09:36:50;;;;;;;;;;;;;;;11.59;48.63;97026.56;4484191;31;34288;-81
2023/01/17 09:39:17;;;;;;;;;;;;;;;12.09;47.52;97022.66;4483789;32;33233;-81
2023/01/17 09:41:50;;;;;;;;;;;;;;;11.29;49.08;97035.94;4483730;32;33131;-81
2023/01/17 09:44:28;;;;;;;;;;;;;;;10.74;50.67;97042.44;4483916;32;34162;-81
2023/01/17 09:46:56;;;;;;;;;;;;;;;11.64;49.09;97040.28;4469591;32;35008;-81
2023/01/17 09:49:36;;;;;;;;;;;;;;;12.04;48.29;97039.25;4483889;32;34811;-81
2023/01/17 09:52:04;;;;;;;;;;;;;;;11.34;50.43;97041.91;4483783;32;34228;-81
2023/01/17 09:54:33;;;;;;;;;;;;;;;12.06;48.50;97045.28;4483917;32;35285;-81
2023/01/17 09:57:07;;;;;;;;;;;;;;;12.25;47.99;97048.22;4469277;32;33797;-81
2023/01/17 09:59:41;;;;;;;;;;;;;;;11.85;49.23;97054.47;4469812;32;33007;-81
2023/01/17 10:02:30;;;;;;;;;;;;;;;12.38;47.86;97065.16;4470092;31;34093;-81
2023/01/17 10:05:00;;;;;;;;;;;;;;;12.24;47.95;97067.31;4469800;32;33816;-81
2023/01/17 10:07:51;;;;;;;;;;;;;;;12.78;46.85;97074.41;4483977;32;34792;-82
2023/01/17 10:10:47;;;;;;;;;;;;;;;12.13;47.14;97071.03;4483805;32;32544;-81
2023/01/17 10:13:17;;;;;;;;;;;;;;;10.58;51.37;97076.44;4427151;32;34987;-94
2023/01/17 10:16:04;;;;;;;;;;;;;;;12.02;47.17;97073.06;4484671;32;34950;-95
2023/01/17 10:18:46;;;;;;;;;;;;;;;12.00;48.29;97069.66;4483783;32;34840;-81
2023/01/17 10:21:13;;;;;;;;;;;;;;;12.80;46.54;97067.41;4483734;32;33806;-81
2023/01/17 10:23:54;;;;;;;;;;;;;;;11.76;48.21;97063.31;4469663;32;33871;-81
2023/01/17 10:26:25;;;;;;;;;;;;;;;11.59;49.80;97073.28;4469450;32;34255;-81
2023/01/17 10:28:53;;;;;;;;;;;;;;;12.75;44.68;97064.94;4469375;32;34779;-94
2023/01/17 10:31:24;;;;;;;;;;;;;;;12.73;45.81;97073.69;4469375;31;33250;-81
2023/01/17 10:33:52;;;;;;;;;;;;;;;12.00;47.66;97067.06;4469547;32;34886;-81
2023/01/17 10:36:21;;;;;;;;;;;;;;;11.99;47.23;97049.78;4469142;32;34033;-81
2023/01/17 10:38:50;;;;;;;;;;;;;;;12.48;47.07;97051.00;4469401;32;34495;-81
2023/01/17 10:41:20;;;;;;;;;;;;;;;13.21;42.96;97041.88;4469458;32;33997;-81
2023/01/17 10:43:51;;;;;;;;;;;;;;;12.52;44.60;97042.22;4483378;31;33950;-81
2023/01/17 10:46:20;;;;;;;;;;;;;;;13.13;43.01;97029.97;4469510;32;34433;-81
2023/01/17 10:48:48;;;;;;;;;;;;;;;12.91;43.76;97032.38;4468979;32;34854;-81
2023/01/17 10:51:33;;;;;;;;;;;;;;;13.32;42.87;97024.22;4483562;32;33366;-81
2023/01/17 10:54:07;;;;;;;;;;;;;;;12.47;45.76;97033.72;4482983;32;34913;-81
2023/01/17 10:56:34;;;;;;;;;;;;;;;13.07;45.63;97029.34;4483415;32;34654;-81
2023/01/17 10:59:08;;;;;;;;;;;;;;;13.68;44.78;97024.75;4469139;32;34003;-81
2023/01/17 11:01:35;;;;;;;;;;;;;;;13.51;43.31;97009.69;4483075;32;33129;-81
2023/01/17 11:04:02;;;;;;;;;;;;;;;13.22;44.28;97005.44;4483281;32;33719;-81
2023/01/17 11:06:32;;;;;;;;;;;;;;;13.62;43.59;97014.53;4483355;32;34386;-81
2023/01/17 11:09:00;;;;;;;;;;;;;;;13.65;43.46;97000.56;4483091;32;33831;-81
2023/01/17 11:11:30;;;;;;;;;;;;;;;12.64;46.32;96989.03;4469190;32;33202;-81
2023/01/17 11:14:04;;;;;;;;;;;;;;;12.74;45.19;97006.06;4469408;32;34198;-81
2023/01/17 11:16:31;;;;;;;;;;;;;;;13.28;44.59;96999.19;4469013;32;34736;-81
2023/01/17 11:19:04;;;;;;;;;;;;;;;13.29;45.10;96998.28;4468927;32;34067;-82
2023/01/17 11:21:32;;;;;;;;;;;;;;;13.14;44.88;96983.97;4468836;32;34057;-81
2023/01/17 11:24:06;;;;;;;;;;;;;;;13.68;42.10;96975.28;4468607;32;35219;-81
2023/01/17 11:26:34;;;;;;;;;;;;;;;13.40;42.73;96980.56;4469042;32;34271;-81
2023/01/17 11:29:14;;;;;;;;;;;;;;;13.32;44.67;96982.56;4468583;32;35042;-81
2023/01/17 11:31:41;;;;;;;;;;;;;;;13.24;43.68;96972.41;4482849;32;32989;-81
2023/01/17 11:34:16;;;;;;;;;;;;;;;13.25;44.68;96965.47;4470023;32;33781;-81
2023/01/17 11:36:43;;;;;;;;;;;;;;;13.49;44.09;96962.03;4484975;32;35533;-81
2023/01/17 11:39:16;;;;;;;;;;;;;;;13.47;44.30;96953.44;4484565;32;34736;-81
2023/01/17 11:41:44;;;;;;;;;;;;;;;13.55;44.17;96951.41;4484894;32;34055;-81
2023/01/17 11:44:21;;;;;;;;;;;;;;;13.37;44.49;96949.41;4484865;32;34179;-81
2023/01/17 11:47:01;;;;;;;;;;;;;;;13.14;44.93;96957.97;4484559;32;34196;-81
2023/01/17 11:49:28;;;;;;;;;;;;;;;13.65;43.78;96966.72;4470204;32;35073;-81
2023/01/17 11:51:55;;;;;;;;;;;;;;;13.71;44.11;96974.31;4484557;32;34067;-82
2023/01/17 11:54:23;;;;;;;;;;;;;;;13.72;43.95;96970.81;4484664;31;33755;-81
2023/01/17 11:56:55;;;;;;;;;;;;;;;12.99;45.73;96976.66;4484613;31;33878;-81
2023/01/17 11:59:33;;;;;;;;;;;;;;;13.46;43.18;96985.56;4470914;32;34279;-81
2023/01/17 12:02:19;;;;;;;;;;;;;;;13.71;42.00;96985.56;4470640;32;33611;-81
2023/01/17 12:04:59;;;;;;;;;;;;;;;13.05;43.87;96985.13;4484439;32;34036;-81
2023/01/17 12:07:37;;;;;;;;;;;;;;;13.47;43.21;96986.41;4484598;32;35323;-81
2023/01/17 12:10:16;;;;;;;;;;;;;;;13.63;43.28;96993.62;4470461;32;34174;-81
2023/01/17 12:15:50;;;;;;;;;;;;;;;13.31;42.65;96986.09;4484749;32;33987;-81
2023/01/17 12:18:50;;;;;;;;;;;;;;;12.62;42.53;96986.50;4484410;32;34388;-81
2023/01/17 12:21:21;;;;;;;;;;;;;;;12.96;43.86;96993.25;4449434;32;34300;-81
2023/01/17 12:24:07;;;;;;;;;;;;;;;13.84;42.49;96984.25;4470184;31;33130;-81
2023/01/17 12:26:48;;;;;;;;;;;;;;;13.70;42.39;96983.03;4484479;32;33954;-81
2023/01/17 12:29:28;;;;;;;;;;;;;;;12.38;43.95;96977.66;4484604;32;34153;-81
2023/01/17 12:31:58;;;;;;;;;;;;;;;13.65;41.85;96979.75;4484618;32;34837;-81
2023/01/17 12:34:28;;;;;;;;;;;;;;;13.87;40.79;96976.34;4484440;32;33176;-81
2023/01/17 12:36:59;;;;;;;;;;;;;;;13.81;41.13;96975.69;4484220;31;34261;-94
2023/01/17 12:39:30;;;;;;;;;;;;;;;14.01;41.17;96978.44;4470483;32;35262;-81
2023/01/17 12:42:01;;;;;;;;;;;;;;;14.28;40.39;96978.31;4484795;32;33867;-81
2023/01/17 12:44:32;;;;;;;;;;;;;;;14.55;37.52;96972.12;4483312;31;33619;-81
2023/01/17 12:47:01;;;;;;;;;;;;;;;14.78;37.40;96970.38;4484691;32;34050;-81
2023/01/17 12:49:47;;;;;;;;;;;;;;;14.40;40.56;96964.84;4470495;32;34500;-93
2023/01/17 12:52:24;;;;;;;;;;;;;;;14.71;39.80;96956.72;4484496;32;34587;-82
2023/01/17 12:54:55;;;;;;;;;;;;;;;13.53;41.33;96961.03;4484427;32;32635;-81
2023/01/17 12:57:27;;;;;;;;;;;;;;;13.99;40.06;96959.41;4469940;32;34687;-81
2023/01/17 12:59:54;;;;;;;;;;;;;;;13.90;41.06;96969.28;4484583;32;35231;-81
2023/01/17 13:02:30;;;;;;;;;;;;;;;13.33;41.63;96968.66;4484394;31;34136;-81
2023/01/17 13:04:59;;;;;;;;;;;;;;;13.66;40.99;96965.81;4470024;32;33432;-81
2023/01/17 13:07:27;;;;;;;;;;;;;;;13.44;42.06;96956.12;4484176;32;33673;-82
2023/01/17 13:09:58;;;;;;;;;;;;;;;13.44;42.38;96965.69;4483961;31;34735;-81
2023/01/17 13:12:25;;;;;;;;;;;;;;;14.53;40.53;96960.03;4469993;32;34809;-81
2023/01/17 13:14:52;;;;;;;;;;;;;;;14.54;41.35;96967.81;4470291;32;33194;-81
2023/01/17 13:17:23;;;;;;;;;;;;;;;14.95;41.27;96967.09;4484290;32;34261;-81
2023/01/17 13:19:55;;;;;;;;;;;;;;;14.71;40.13;96974.16;4470398;32;34128;-81
2023/01/17 13:22:25;;;;;;;;;;;;;;;13.82;41.20;96980.84;4469763;32;34425;-82
2023/01/17 13:24:59;;;;;;;;;;;;;;;14.26;40.73;96983.59;4470265;32;33406;-81
2023/01/17 13:27:29;;;;;;;;;;;;;;;12.96;42.89;96971.59;4484189;32;34117;-81
2023/01/17 13:30:15;;;;;;;;;;;;;;;12.47;44.37;96979.16;4483903;32;35193;-81
2023/01/17 13:33:01;;;;;;;;;;;;;;;13.09;43.46;96968.53;4484068;32;34300;-93
2023/01/17 13:35:42;;;;;;;;;;;;;;;13.22;43.44;96963.78;4483906;32;33898;-81
2023/01/17 13:38:28;;;;;;;;;;;;;;;12.40;46.23;96962.03;4470367;32;34344;-81
2023/01/17 13:41:14;;;;;;;;;;;;;;;12.86;45.08;96951.06;4483936;32;34473;-81
2023/01/17 13:44:20;;;;;;;;;;;;;;;13.53;44.37;96952.37;4469474;32;34065;-81
2023/01/17 13:46:51;;;;;;;;;;;;;;;13.93;43.08;96954.41;4472510;32;33220;-81
2023/01/17 13:49:19;;;;;;;;;;;;;;;13.60;44.02;96941.69;4483877;32;33570;-81
2023/01/17 13:52:11;;;;;;;;;;;;;;;14.05;42.94;96946.19;4469872;32;35149;-81
2023/01/17 13:54:42;;;;;;;;;;;;;;;13.09;44.41;96939.91;4476150;32;34979;-82
2023/01/17 13:57:23;;;;;;;;;;;;;;;13.87;43.08;96926.84;4469128;32;34243;-81
2023/01/17 13:59:50;;;;;;;;;;;;;;;13.77;43.74;96927.22;4483974;31;34322;-81
2023/01/17 14:02:30;;;;;;;;;;;;;;;12.71;45.61;96914.31;4483914;31;34179;-85
2023/01/17 14:05:06;;;;;;;;;;;;;;;13.56;44.38;96915.81;4483755;32;35183;-82
2023/01/17 14:07:41;;;;;;;;;;;;;;;13.87;43.63;96897.34;4483947;32;33110;-81
2023/01/17 14:10:35;;;;;;;;;;;;;;;12.71;45.91;96888.31;4469661;31;33679;-81
2023/01/17 14:13:03;;;;;;;;;;;;;;;12.22;47.16;96888.09;4480997;32;33781;-88
2023/01/17 14:15:34;;;;;;;;;;;;;;;12.53;47.06;96881.94;4484059;32;34199;-81
2023/01/17 14:18:02;;;;;;;;;;;;;;;11.69;48.95;96883.53;4483534;32;33482;-81
2023/01/17 14:20:35;;;;;;;;;;;;;;;10.53;52.11;96871.03;4469430;31;34822;-81
2023/01/17 14:23:04;;;;;;;;;;;;;;;11.24;50.78;96879.59;4469680;32;35054;-81
2023/01/17 14:25:37;;;;;;;;;;;;;;;11.61;49.83;96869.91;4469456;32;34251;-81
2023/01/17 14:28:28;;;;;;;;;;;;;;;11.51;49.75;96859.84;4469677;32;34238;-81